Time;durP1;ratioP1;P1;durP2;ratioP2;P2;SDS_P1;SDS_P2;PMS_P1;PMS_P2;Temp;Humidity;BMP_temperature;BMP_pressure;BME280_temperature;BME280_humidity;BME280_pressure;Samples;Min_cycle;Max_cycle;Signal;HPM_P1;HPM_P2
2023/06/03 00:00:33;;;;;;;0.20;0.20;;;11.50;99.90;;;;;;5093972;28;20036;-58
2023/06/03 00:02:59;;;;;;;0.20;0.20;;;11.50;99.90;;;;;;5093713;28;20047;-58
2023/06/03 00:05:25;;;;;;;0.20;0.20;;;11.50;99.90;;;;;;5093584;28;20356;-42
2023/06/03 00:07:50;;;;;;;0.20;0.20;;;11.40;99.90;;;;;;5083710;28;20013;-46
2023/06/03 00:10:16;;;;;;;0.20;0.20;;;11.50;99.90;;;;;;5093595;28;20082;-44
2023/06/03 00:12:43;;;;;;;0.20;0.20;;;11.50;99.90;;;;;;5093388;28;20028;-49
2023/06/03 00:15:09;;;;;;;0.20;0.20;;;11.40;99.90;;;;;;5093640;28;20074;-44
2023/06/03 00:17:35;;;;;;;0.20;0.20;;;11.40;99.90;;;;;;5093569;28;20103;-45
2023/06/03 00:20:06;;;;;;;0.20;0.20;;;11.30;99.90;;;;;;5092254;28;20426;-44
2023/06/03 00:22:36;;;;;;;0.20;0.20;;;11.30;99.90;;;;;;5093377;28;20036;-43
2023/06/03 00:25:02;;;;;;;0.20;0.20;;;11.30;99.90;;;;;;5093346;28;20467;-41
2023/06/03 00:27:27;;;;;;;0.20;0.20;;;11.20;99.90;;;;;;5093427;28;20021;-41
2023/06/03 00:29:53;;;;;;;0.20;0.20;;;11.20;99.90;;;;;;5093182;28;20036;-41
2023/06/03 00:32:19;;;;;;;0.10;0.10;;;11.10;99.90;;;;;;5093131;28;20023;-41
2023/06/03 00:34:44;;;;;;;0.20;0.20;;;11.10;99.90;;;;;;5093162;28;20466;-41
2023/06/03 00:37:10;;;;;;;0.20;0.20;;;11.10;99.90;;;;;;5088849;28;20030;-45
2023/06/03 00:39:36;;;;;;;0.20;0.20;;;11.10;99.90;;;;;;5091559;28;20047;-52
2023/06/03 00:42:01;;;;;;;0.10;0.10;;;11.10;99.90;;;;;;5084284;28;20403;-40
2023/06/03 00:44:27;;;;;;;0.20;0.20;;;11.00;99.90;;;;;;5092783;28;20384;-42
2023/06/03 00:46:53;;;;;;;0.20;0.20;;;11.10;99.90;;;;;;5084295;28;20028;-43
2023/06/03 00:49:18;;;;;;;0.20;0.20;;;11.00;99.90;;;;;;5091190;28;20093;-48
2023/06/03 00:51:45;;;;;;;0.20;0.20;;;11.00;99.90;;;;;;5085318;28;20078;-50
2023/06/03 00:54:11;;;;;;;0.20;0.20;;;11.00;99.90;;;;;;5089711;28;20036;-42
2023/06/03 00:56:42;;;;;;;0.20;0.20;;;10.90;99.90;;;;;;5086392;28;20021;-40
2023/06/03 00:59:10;;;;;;;0.10;0.10;;;10.90;99.90;;;;;;5088242;28;20024;-44
2023/06/03 01:01:38;;;;;;;0.30;0.30;;;10.90;99.90;;;;;;5085980;28;20028;-46
2023/06/03 01:04:05;;;;;;;0.20;0.20;;;10.90;99.90;;;;;;5086617;28;20433;-40
2023/06/03 01:06:58;;;;;;;0.10;0.10;;;10.80;99.90;;;;;;5087223;28;20028;-48
2023/06/03 01:09:32;;;;;;;0.20;0.20;;;10.80;99.90;;;;;;5088351;28;20100;-44
2023/06/03 01:12:07;;;;;;;0.10;0.10;;;10.80;99.90;;;;;;5083619;28;20038;-52
2023/06/03 01:14:50;;;;;;;0.20;0.20;;;10.70;99.90;;;;;;5088693;28;20024;-52
2023/06/03 01:17:18;;;;;;;0.20;0.20;;;10.70;99.90;;;;;;5092409;28;20073;-46
2023/06/03 01:19:50;;;;;;;0.13;0.13;;;10.70;99.90;;;;;;5092154;28;20032;-50
2023/06/03 01:22:17;;;;;;;0.13;0.13;;;10.70;99.90;;;;;;5090985;28;20065;-56
2023/06/03 01:24:50;;;;;;;0.20;0.20;;;10.70;99.90;;;;;;5092030;28;20059;-47
2023/06/03 01:27:17;;;;;;;0.20;0.20;;;10.60;99.90;;;;;;5092203;28;20024;-46
2023/06/03 01:29:44;;;;;;;0.20;0.20;;;10.60;99.90;;;;;;5092124;28;20044;-44
2023/06/03 01:32:13;;;;;;;0.20;0.20;;;10.60;99.90;;;;;;5091766;28;20395;-47
2023/06/03 01:34:41;;;;;;;0.20;0.20;;;10.60;99.90;;;;;;5092021;28;20020;-47
2023/06/03 01:37:08;;;;;;;0.20;0.20;;;10.50;99.90;;;;;;5092054;28;20031;-44
2023/06/03 01:39:34;;;;;;;0.70;0.50;;;10.60;99.90;;;;;;5091909;28;20015;-53
2023/06/03 01:41:59;;;;;;;0.20;0.20;;;10.50;99.90;;;;;;5083885;28;20424;-51
2023/06/03 01:44:26;;;;;;;0.20;0.20;;;10.50;99.90;;;;;;5091770;28;20055;-41
2023/06/03 01:46:52;;;;;;;0.20;0.20;;;10.50;99.90;;;;;;5091891;28;20036;-50
2023/06/03 01:49:18;;;;;;;0.20;0.20;;;10.50;99.90;;;;;;5091603;28;20470;-48
2023/06/03 01:51:44;;;;;;;0.20;0.20;;;10.50;99.90;;;;;;5091615;28;20114;-42
2023/06/03 01:54:10;;;;;;;0.20;0.20;;;10.50;99.90;;;;;;5091489;28;20115;-47
2023/06/03 01:56:35;;;;;;;0.20;0.20;;;10.50;99.90;;;;;;5091709;28;20024;-45
2023/06/03 01:59:01;;;;;;;0.20;0.20;;;10.50;99.90;;;;;;5091445;28;20081;-44
2023/06/03 02:01:26;;;;;;;0.20;0.20;;;10.50;99.90;;;;;;5091736;28;20016;-44
2023/06/03 02:03:52;;;;;;;0.20;0.20;;;10.40;99.90;;;;;;5091567;28;20035;-57
2023/06/03 02:06:18;;;;;;;0.20;0.20;;;10.40;99.90;;;;;;5091245;28;20016;-44
2023/06/03 02:08:43;;;;;;;0.20;0.20;;;10.40;99.90;;;;;;5091144;28;20040;-43
2023/06/03 02:11:09;;;;;;;0.20;0.20;;;10.40;99.90;;;;;;5090374;28;20103;-40
2023/06/03 02:13:35;;;;;;;0.20;0.20;;;10.40;99.90;;;;;;5079766;28;20374;-40
2023/06/03 02:16:00;;;;;;;0.20;0.20;;;10.40;99.90;;;;;;5091114;28;20016;-42
2023/06/03 02:18:26;;;;;;;0.20;0.20;;;10.40;99.90;;;;;;5091263;28;20096;-44
2023/06/03 02:20:52;;;;;;;0.20;0.20;;;10.40;99.90;;;;;;5090999;28;20142;-48
2023/06/03 02:23:18;;;;;;;0.20;0.20;;;10.40;99.90;;;;;;5090929;28;20376;-46
2023/06/03 02:25:43;;;;;;;0.30;0.30;;;10.40;99.90;;;;;;5091325;28;20031;-49
2023/06/03 02:28:09;;;;;;;0.20;0.20;;;10.40;99.90;;;;;;5091261;28;20074;-43
2023/06/03 02:30:35;;;;;;;0.20;0.20;;;10.40;99.90;;;;;;5091125;28;20553;-46
2023/06/03 02:33:00;;;;;;;0.20;0.20;;;10.40;99.90;;;;;;5091018;28;20020;-46
2023/06/03 02:35:26;;;;;;;0.20;0.20;;;10.40;99.90;;;;;;5090982;28;20386;-57
2023/06/03 02:37:51;;;;;;;0.20;0.20;;;10.40;99.90;;;;;;5090922;28;20146;-50
2023/06/03 02:40:17;;;;;;;0.20;0.20;;;10.50;99.90;;;;;;5091013;28;20031;-51
2023/06/03 02:42:43;;;;;;;0.20;0.20;;;10.50;99.90;;;;;;5083760;28;20426;-53
2023/06/03 02:45:09;;;;;;;0.20;0.20;;;10.50;99.90;;;;;;5090618;28;20055;-50
2023/06/03 02:47:35;;;;;;;0.20;0.20;;;10.50;99.90;;;;;;5090788;28;20027;-41
2023/06/03 02:50:00;;;;;;;0.20;0.20;;;10.50;99.90;;;;;;5090612;28;20032;-51
2023/06/03 02:52:26;;;;;;;0.20;0.20;;;10.50;99.90;;;;;;5090371;28;20040;-47
2023/06/03 02:54:51;;;;;;;0.20;0.20;;;10.50;99.90;;;;;;5080057;28;20039;-51
2023/06/03 02:57:17;;;;;;;0.20;0.20;;;10.50;99.90;;;;;;5079198;28;20020;-45
2023/06/03 02:59:43;;;;;;;0.20;0.20;;;10.50;99.90;;;;;;5088482;28;20068;-48
2023/06/03 03:02:09;;;;;;;0.20;0.20;;;10.50;99.90;;;;;;5082967;28;20043;-44
2023/06/03 03:04:36;;;;;;;0.20;0.20;;;10.50;99.90;;;;;;5090454;28;20421;-51
2023/06/03 03:07:08;;;;;;;0.20;0.20;;;10.50;99.90;;;;;;5090471;28;20028;-45
2023/06/03 03:09:34;;;;;;;0.20;0.20;;;10.50;99.90;;;;;;5090212;28;20116;-45
2023/06/03 03:12:00;;;;;;;0.20;0.20;;;10.50;99.90;;;;;;5083579;28;20036;-54
2023/06/03 03:14:26;;;;;;;0.20;0.20;;;10.50;99.90;;;;;;5085855;28;20024;-46
2023/06/03 03:16:52;;;;;;;0.20;0.20;;;10.60;99.90;;;;;;5090511;28;20048;-49
2023/06/03 03:19:18;;;;;;;0.30;0.30;;;10.50;99.90;;;;;;5090463;28;20597;-44
2023/06/03 03:21:43;;;;;;;0.20;0.20;;;10.60;99.90;;;;;;5090074;28;20122;-49
2023/06/03 03:24:10;;;;;;;0.20;0.20;;;10.50;99.90;;;;;;5090173;28;20114;-42
2023/06/03 03:26:36;;;;;;;0.20;0.20;;;10.50;99.90;;;;;;5090574;28;20096;-50
2023/06/03 03:29:02;;;;;;;0.20;0.20;;;10.50;99.90;;;;;;5090286;28;20094;-45
2023/06/03 03:31:28;;;;;;;0.20;0.20;;;10.50;99.90;;;;;;5090430;28;20399;-43
2023/06/03 03:33:54;;;;;;;0.20;0.20;;;10.50;99.90;;;;;;5088679;28;20391;-52
2023/06/03 03:36:22;;;;;;;0.20;0.20;;;10.50;99.90;;;;;;5090295;28;20056;-49
2023/06/03 03:39:01;;;;;;;0.20;0.20;;;10.60;99.90;;;;;;5089995;28;20024;-53
2023/06/03 03:41:26;;;;;;;0.20;0.20;;;10.50;99.90;;;;;;5088255;28;20056;-55
2023/06/03 03:43:52;;;;;;;0.20;0.20;;;10.60;99.90;;;;;;5086018;28;20460;-50
2023/06/03 03:46:18;;;;;;;0.20;0.20;;;10.50;99.90;;;;;;5090050;28;20483;-49
2023/06/03 03:48:47;;;;;;;0.20;0.20;;;10.50;99.90;;;;;;5090090;28;20036;-46
2023/06/03 03:51:13;;;;;;;0.20;0.20;;;10.50;99.90;;;;;;5090203;28;20032;-53
2023/06/03 03:53:46;;;;;;;0.20;0.20;;;10.50;99.90;;;;;;5083486;28;20318;-44
2023/06/03 03:56:20;;;;;;;0.20;0.20;;;10.60;99.90;;;;;;5093776;28;20039;-46
2023/06/03 03:58:47;;;;;;;0.20;0.20;;;10.60;99.90;;;;;;5093549;28;20107;-47
2023/06/03 04:01:18;;;;;;;0.20;0.20;;;10.60;99.90;;;;;;5093619;28;20097;-45
2023/06/03 04:03:51;;;;;;;0.20;0.20;;;10.60;99.90;;;;;;5093699;28;20024;-47
2023/06/03 04:06:27;;;;;;;0.20;0.20;;;10.60;99.90;;;;;;5093686;28;20028;-45
2023/06/03 04:08:54;;;;;;;0.20;0.20;;;10.60;99.90;;;;;;5093430;28;20120;-41
2023/06/03 04:11:35;;;;;;;0.10;0.10;;;10.60;99.90;;;;;;5092505;28;20028;-40
2023/06/03 04:14:01;;;;;;;0.20;0.20;;;10.70;99.90;;;;;;5093108;28;20118;-40
2023/06/03 04:16:56;;;;;;;0.20;0.20;;;10.60;99.90;;;;;;5070501;28;20036;-40
2023/06/03 04:19:33;;;;;;;0.20;0.20;;;10.70;99.90;;;;;;5061017;28;20103;-40
2023/06/03 04:22:00;;;;;;;0.20;0.20;;;10.70;99.90;;;;;;5071862;28;20048;-39
2023/06/03 04:24:26;;;;;;;0.20;0.20;;;10.70;99.90;;;;;;5072722;28;20025;-49
2023/06/03 04:26:53;;;;;;;0.20;0.20;;;10.70;99.90;;;;;;5071294;28;20043;-48
2023/06/03 04:29:19;;;;;;;0.20;0.20;;;10.70;99.90;;;;;;5059216;28;20036;-42
2023/06/03 04:31:45;;;;;;;0.10;0.10;;;10.80;99.90;;;;;;5072524;28;20044;-44
2023/06/03 04:34:11;;;;;;;0.20;0.20;;;10.80;99.90;;;;;;5072717;28;20020;-42
2023/06/03 04:36:36;;;;;;;0.20;0.20;;;10.80;99.90;;;;;;5068195;28;20031;-54
2023/06/03 04:39:05;;;;;;;0.20;0.20;;;10.90;99.90;;;;;;5072569;28;20111;-49
2023/06/03 04:41:32;;;;;;;0.20;0.20;;;10.90;99.90;;;;;;5072273;28;20055;-45
2023/06/03 04:44:01;;;;;;;0.20;0.20;;;10.90;99.90;;;;;;5072031;28;20072;-44
2023/06/03 04:46:29;;;;;;;0.20;0.20;;;10.90;99.90;;;;;;5065744;28;20024;-50
2023/06/03 04:49:01;;;;;;;0.20;0.20;;;11.00;99.90;;;;;;5068504;28;20048;-56
2023/06/03 04:51:28;;;;;;;0.20;0.20;;;11.00;99.90;;;;;;5072419;28;20043;-46
2023/06/03 04:53:57;;;;;;;0.20;0.20;;;11.10;99.90;;;;;;5072295;28;20050;-41
2023/06/03 04:56:29;;;;;;;0.20;0.20;;;11.10;99.90;;;;;;5072182;28;20109;-47
2023/06/03 04:59:00;;;;;;;0.20;0.20;;;11.20;99.90;;;;;;5072187;28;20382;-47
2023/06/03 05:01:27;;;;;;;0.20;0.20;;;11.20;99.90;;;;;;5068405;28;20384;-45
2023/06/03 05:03:53;;;;;;;0.20;0.20;;;11.30;99.90;;;;;;5075534;28;20028;-44
2023/06/03 05:06:19;;;;;;;0.20;0.20;;;11.40;99.90;;;;;;5062409;28;20032;-50
2023/06/03 05:08:49;;;;;;;0.20;0.20;;;11.50;99.90;;;;;;5072091;28;20044;-47
2023/06/03 05:11:16;;;;;;;0.20;0.20;;;11.50;99.90;;;;;;5072038;28;20017;-49
2023/06/03 05:13:42;;;;;;;0.20;0.20;;;11.60;99.90;;;;;;5071747;28;20070;-50
2023/06/03 05:16:07;;;;;;;0.20;0.20;;;11.70;99.90;;;;;;5070516;28;20050;-52
2023/06/03 05:18:35;;;;;;;0.20;0.20;;;11.80;99.90;;;;;;5071899;28;20112;-49
2023/06/03 05:21:01;;;;;;;0.20;0.20;;;11.90;99.90;;;;;;5071620;28;20391;-41
2023/06/03 05:23:27;;;;;;;0.20;0.20;;;12.00;99.90;;;;;;5071954;28;20543;-55
2023/06/03 05:25:53;;;;;;;0.20;0.20;;;12.10;99.90;;;;;;5071731;28;20127;-43
2023/06/03 05:28:18;;;;;;;0.20;0.20;;;12.30;99.90;;;;;;5071990;28;20081;-58
2023/06/03 05:30:44;;;;;;;0.10;0.10;;;12.30;99.90;;;;;;5071474;28;20040;-42
2023/06/03 05:33:22;;;;;;;0.10;0.10;;;12.40;99.90;;;;;;5071707;28;20020;-50
2023/06/03 05:35:47;;;;;;;0.20;0.20;;;12.40;99.90;;;;;;5071539;28;20024;-49
2023/06/03 05:38:13;;;;;;;0.20;0.20;;;12.40;99.90;;;;;;5071588;28;20037;-53
2023/06/03 05:40:39;;;;;;;0.10;0.10;;;12.50;99.90;;;;;;5071457;28;20023;-49
2023/06/03 05:43:04;;;;;;;0.10;0.10;;;12.70;99.90;;;;;;5065483;28;20025;-53
2023/06/03 05:45:30;;;;;;;0.10;0.10;;;12.90;99.90;;;;;;5070847;28;20064;-45
2023/06/03 05:47:55;;;;;;;0.32;0.32;;;12.90;99.90;;;;;;5071230;28;20383;-55
2023/06/03 05:50:21;;;;;;;0.20;0.20;;;12.90;99.90;;;;;;5071211;28;20040;-41
2023/06/03 05:52:46;;;;;;;0.20;0.20;;;13.00;99.90;;;;;;5071183;28;20028;-56
2023/06/03 05:55:12;;;;;;;0.20;0.20;;;13.10;99.90;;;;;;5070047;28;20036;-48
2023/06/03 05:57:40;;;;;;;0.20;0.20;;;13.20;99.90;;;;;;5071104;28;20424;-44
2023/06/03 06:00:06;;;;;;;0.20;0.20;;;13.40;99.90;;;;;;5060599;28;20025;-44
2023/06/03 06:02:32;;;;;;;0.10;0.10;;;13.50;99.90;;;;;;5083006;28;20114;-48
2023/06/03 06:04:58;;;;;;;0.20;0.20;;;13.60;99.90;;;;;;5091329;28;20537;-57
2023/06/03 06:07:23;;;;;;;0.20;0.20;;;13.60;99.90;;;;;;5091434;28;20031;-41
2023/06/03 06:09:49;;;;;;;0.10;0.10;;;13.60;99.90;;;;;;5091544;28;20145;-55
2023/06/03 06:12:14;;;;;;;0.10;0.10;;;13.70;99.90;;;;;;5083527;28;20395;-55
2023/06/03 06:14:40;;;;;;;0.10;0.10;;;13.80;99.90;;;;;;5077327;28;20028;-55
2023/06/03 06:17:06;;;;;;;0.10;0.10;;;13.80;99.90;;;;;;5062885;28;20024;-53
2023/06/03 06:19:35;;;;;;;0.10;0.10;;;13.90;99.90;;;;;;5068679;28;20040;-42
2023/06/03 06:22:01;;;;;;;;;;;13.80;99.90;;;;;;5070935;28;20074;-58
2023/06/03 06:24:27;;;;;;;0.20;0.20;;;13.70;99.90;;;;;;5070907;28;19904;-47
2023/06/03 06:26:52;;;;;;;0.13;0.13;;;13.70;99.90;;;;;;5067186;28;20094;-44
2023/06/03 06:29:18;;;;;;;0.20;0.20;;;13.70;99.90;;;;;;5070700;28;20043;-49
2023/06/03 06:31:44;;;;;;;0.10;0.10;;;13.70;99.90;;;;;;5070426;28;20063;-51
2023/06/03 06:34:15;;;;;;;0.10;0.10;;;13.60;99.90;;;;;;5070587;28;20031;-46
2023/06/03 06:36:52;;;;;;;0.10;0.10;;;13.50;99.90;;;;;;5070535;28;20012;-44
2023/06/03 06:39:33;;;;;;;0.10;0.10;;;13.50;99.90;;;;;;5070454;28;20029;-47
2023/06/03 06:42:31;;;;;;;0.40;0.30;;;13.60;99.90;;;;;;5070209;28;20085;-48
2023/06/03 06:44:57;;;;;;;0.20;0.20;;;13.60;99.90;;;;;;5060931;28;20051;-46
2023/06/03 06:47:24;;;;;;;0.20;0.20;;;13.60;99.90;;;;;;5069975;28;20032;-51
2023/06/03 06:49:50;;;;;;;0.20;0.20;;;13.70;99.90;;;;;;5070374;28;20028;-48
2023/06/03 06:52:16;;;;;;;0.20;0.20;;;13.60;99.90;;;;;;5070426;28;20028;-42
2023/06/03 06:54:42;;;;;;;0.10;0.10;;;13.60;99.90;;;;;;5070246;28;20109;-48
2023/06/03 06:57:08;;;;;;;0.20;0.20;;;13.60;99.90;;;;;;5070515;28;20036;-45
2023/06/03 06:59:33;;;;;;;0.10;0.10;;;13.60;99.90;;;;;;5068880;28;20491;-47
2023/06/03 07:01:59;;;;;;;0.20;0.20;;;13.60;99.90;;;;;;5073168;28;20073;-51
2023/06/03 07:04:25;;;;;;;0.30;0.30;;;13.60;99.90;;;;;;5064812;28;20028;-48
2023/06/03 07:06:50;;;;;;;0.10;0.10;;;13.60;99.90;;;;;;5070217;28;20115;-51
2023/06/03 07:09:16;;;;;;;0.20;0.20;;;13.70;99.90;;;;;;5070176;28;20028;-49
2023/06/03 07:11:44;;;;;;;0.15;0.15;;;13.70;99.90;;;;;;5069924;28;20025;-53
2023/06/03 07:14:10;;;;;;;0.20;0.20;;;13.60;99.90;;;;;;5070249;28;20033;-48
2023/06/03 07:16:35;;;;;;;0.20;0.20;;;13.70;99.90;;;;;;5069783;28;20024;-51
2023/06/03 07:19:02;;;;;;;0.10;0.10;;;13.70;99.90;;;;;;5070176;28;20029;-52
2023/06/03 07:21:28;;;;;;;0.10;0.10;;;13.70;99.90;;;;;;5070161;28;20028;-48
2023/06/03 07:23:53;;;;;;;0.10;0.10;;;13.70;99.90;;;;;;5057212;28;20157;-42
2023/06/03 07:26:19;;;;;;;0.20;0.20;;;13.70;99.90;;;;;;5069567;28;20025;-45
2023/06/03 07:28:47;;;;;;;0.28;0.28;;;13.90;99.90;;;;;;5072303;28;20033;-43
2023/06/03 07:31:12;;;;;;;0.25;0.25;;;14.10;99.90;;;;;;5073844;28;20025;-46
2023/06/03 07:33:50;;;;;;;0.10;0.10;;;14.40;99.90;;;;;;5067395;28;20075;-51
2023/06/03 07:36:18;;;;;;;0.10;0.10;;;14.70;99.90;;;;;;5073676;28;20090;-50
2023/06/03 07:38:47;;;;;;;0.13;0.13;;;14.80;99.90;;;;;;5073575;28;20094;-53
2023/06/03 07:41:28;;;;;;;0.10;0.10;;;14.80;99.90;;;;;;5073602;28;20024;-48
2023/06/03 07:43:57;;;;;;;0.10;0.10;;;14.90;99.90;;;;;;5069316;28;20090;-41
2023/06/03 07:46:41;;;;;;;0.20;0.20;;;15.10;99.90;;;;;;5073433;28;20475;-42
2023/06/03 07:49:14;;;;;;;0.10;0.10;;;15.30;99.90;;;;;;5070426;28;20086;-44
2023/06/03 07:51:49;;;;;;;0.10;0.10;;;15.60;99.90;;;;;;5073271;28;20033;-46
2023/06/03 07:54:15;;;;;;;0.10;0.10;;;15.70;99.90;;;;;;5073410;28;20040;-45
2023/06/03 07:56:42;;;;;;;0.10;0.10;;;16.00;99.90;;;;;;5080652;28;20025;-40
2023/06/03 07:59:15;;;;;;;0.10;0.10;;;16.20;99.90;;;;;;5086437;28;20040;-45
2023/06/03 08:01:42;;;;;;;0.10;0.10;;;16.70;99.90;;;;;;5072608;28;20130;-54
2023/06/03 08:04:20;;;;;;;0.10;0.10;;;16.90;99.90;;;;;;5093659;28;20028;-41
2023/06/03 08:06:47;;;;;;;0.10;0.10;;;17.40;99.90;;;;;;5087688;28;20039;-50
2023/06/03 08:09:36;;;;;;;0.10;0.10;;;17.70;99.90;;;;;;5077855;28;20102;-47
2023/06/03 08:12:06;;;;;;;0.20;0.20;;;17.60;99.90;;;;;;5073253;28;20020;-44
2023/06/03 08:14:34;;;;;;;0.20;0.20;;;18.00;99.90;;;;;;5072917;28;20017;-40
2023/06/03 08:17:09;;;;;;;0.10;0.10;;;18.40;99.90;;;;;;5073069;28;20498;-48
2023/06/03 08:19:35;;;;;;;0.10;0.10;;;18.90;99.90;;;;;;5067200;28;20131;-50
2023/06/03 08:22:00;;;;;;;0.10;0.10;;;19.30;99.90;;;;;;5073002;28;20442;-48
2023/06/03 08:24:26;;;;;;;0.10;0.10;;;19.50;99.90;;;;;;5072948;28;20021;-53
2023/06/03 08:26:52;;;;;;;0.10;0.10;;;20.00;99.90;;;;;;5072610;28;20365;-49
2023/06/03 08:29:18;;;;;;;0.10;0.10;;;20.00;99.90;;;;;;5071399;28;20116;-44
2023/06/03 08:31:43;;;;;;;0.10;0.10;;;20.20;99.90;;;;;;5060370;28;20522;-50
2023/06/03 08:34:09;;;;;;;0.10;0.10;;;20.10;99.90;;;;;;5072390;28;20032;-51
2023/06/03 08:36:36;;;;;;;0.10;0.10;;;20.00;99.90;;;;;;5072650;28;20032;-41
2023/06/03 08:39:02;;;;;;;0.10;0.10;;;20.10;99.90;;;;;;5072217;28;20446;-40
2023/06/03 08:41:37;;;;;;;0.10;0.10;;;20.10;99.90;;;;;;5070059;28;20013;-45
2023/06/03 08:44:16;;;;;;;0.17;0.17;;;20.30;99.90;;;;;;5071096;28;20036;-41
2023/06/03 08:47:00;;;;;;;0.10;0.10;;;20.20;99.90;;;;;;5071819;28;20012;-48
2023/06/03 08:49:42;;;;;;;0.10;0.10;;;20.50;99.90;;;;;;5072294;28;20036;-41
2023/06/03 08:52:10;;;;;;;0.10;0.10;;;20.70;99.90;;;;;;5066261;28;20024;-48
2023/06/03 08:54:40;;;;;;;0.10;0.10;;;20.60;99.90;;;;;;5072500;28;20013;-55
2023/06/03 08:57:09;;;;;;;0.10;0.10;;;21.00;99.90;;;;;;5071959;28;20078;-45
2023/06/03 08:59:40;;;;;;;0.10;0.10;;;20.90;99.90;;;;;;5072187;28;20013;-39
2023/06/03 09:02:07;;;;;;;0.10;0.10;;;20.80;99.90;;;;;;5080157;28;20028;-55
2023/06/03 09:04:34;;;;;;;0.10;0.10;;;20.80;99.90;;;;;;5092332;28;20020;-42
2023/06/03 09:07:03;;;;;;;0.10;0.10;;;20.80;99.90;;;;;;5092417;28;20028;-46
2023/06/03 09:09:30;;;;;;;0.10;0.10;;;20.40;99.90;;;;;;5092132;28;20028;-41
2023/06/03 09:11:57;;;;;;;0.10;0.10;;;20.30;99.90;;;;;;5074021;28;20025;-45
2023/06/03 09:14:24;;;;;;;0.10;0.10;;;20.60;99.90;;;;;;5071949;28;20036;-55
2023/06/03 09:16:50;;;;;;;0.10;0.10;;;20.70;99.90;;;;;;5071829;28;20017;-43
2023/06/03 09:19:16;;;;;;;0.10;0.10;;;21.00;99.90;;;;;;5071880;28;20563;-41
2023/06/03 09:21:43;;;;;;;0.10;0.10;;;21.60;99.90;;;;;;5071785;28;20035;-45
2023/06/03 09:24:12;;;;;;;0.30;0.30;;;22.20;99.90;;;;;;5072093;28;20025;-41
2023/06/03 09:26:39;;;;;;;0.10;0.10;;;22.40;99.90;;;;;;5071380;28;20028;-41
2023/06/03 09:29:06;;;;;;;0.10;0.10;;;22.80;99.90;;;;;;5058204;28;20040;-54
2023/06/03 09:31:32;;;;;;;0.10;0.10;;;23.50;99.90;;;;;;5071703;28;20016;-41
2023/06/03 09:33:57;;;;;;;0.20;0.20;;;23.90;97.70;;;;;;5071607;28;20166;-51
2023/06/03 09:36:25;;;;;;;0.00;0.00;;;24.30;96.20;;;;;;5071717;28;20028;-47
2023/06/03 09:38:55;;;;;;;0.10;0.10;;;24.60;97.90;;;;;;5071576;28;20107;-44
2023/06/03 09:41:25;;;;;;;0.10;0.10;;;23.90;92.80;;;;;;5066879;28;20442;-45
2023/06/03 09:44:01;;;;;;;0.10;0.10;;;24.00;95.00;;;;;;5091684;28;20024;-45
2023/06/03 09:46:29;;;;;;;0.10;0.10;;;24.20;94.70;;;;;;5091705;28;20039;-44
2023/06/03 09:49:14;;;;;;;0.10;0.10;;;25.00;93.20;;;;;;5091528;28;20414;-46
2023/06/03 09:51:44;;;;;;;0.10;0.10;;;25.10;92.80;;;;;;5090792;28;20016;-44
2023/06/03 09:54:18;;;;;;;0.10;0.10;;;25.10;90.50;;;;;;5091564;28;20074;-50
2023/06/03 09:56:45;;;;;;;0.10;0.10;;;24.90;90.10;;;;;;5082309;28;20467;-42
2023/06/03 09:59:23;;;;;;;0.10;0.10;;;25.20;91.40;;;;;;5071244;28;20104;-40
2023/06/03 10:01:52;;;;;;;0.10;0.10;;;25.50;87.60;;;;;;5074060;28;20039;-43
2023/06/03 10:04:24;;;;;;;0.08;0.08;;;26.00;87.60;;;;;;5090613;28;20042;-43
2023/06/03 10:07:13;;;;;;;0.00;0.00;;;26.30;87.50;;;;;;5071840;28;20033;-46
2023/06/03 10:09:44;;;;;;;0.10;0.10;;;26.60;86.80;;;;;;5070836;28;20040;-41
2023/06/03 10:12:11;;;;;;;0.10;0.10;;;26.90;83.90;;;;;;5070925;28;20038;-40
2023/06/03 10:14:48;;;;;;;0.00;0.00;;;26.80;83.90;;;;;;5071098;28;20510;-40
2023/06/03 10:17:15;;;;;;;0.00;0.00;;;26.70;83.50;;;;;;5071144;28;20043;-39
2023/06/03 10:19:43;;;;;;;0.10;0.10;;;26.40;80.20;;;;;;5083916;28;20089;-44
2023/06/03 10:22:12;;;;;;;0.13;0.13;;;25.90;82.80;;;;;;5071744;28;20052;-42
2023/06/03 10:24:40;;;;;;;0.10;0.10;;;26.40;83.60;;;;;;5070590;28;20021;-40
2023/06/03 10:27:06;;;;;;;0.10;0.10;;;26.40;80.00;;;;;;5069966;28;20073;-42
2023/06/03 10:29:33;;;;;;;0.10;0.10;;;26.50;79.20;;;;;;5070913;28;20033;-46
2023/06/03 10:32:01;;;;;;;0.08;0.08;;;25.60;77.30;;;;;;5070902;28;20032;-42
2023/06/03 10:34:34;;;;;;;0.10;0.10;;;25.60;82.70;;;;;;5065799;28;20055;-42
2023/06/03 10:37:03;;;;;;;0.10;0.10;;;26.30;85.60;;;;;;5061897;28;20032;-50
2023/06/03 10:39:32;;;;;;;0.00;0.00;;;26.00;77.70;;;;;;5066385;28;20056;-40
2023/06/03 10:41:59;;;;;;;0.10;0.10;;;25.80;80.70;;;;;;5066997;28;20040;-40
2023/06/03 10:44:25;;;;;;;0.10;0.10;;;26.20;84.50;;;;;;5070470;28;20048;-41
2023/06/03 10:46:59;;;;;;;0.00;0.00;;;26.50;79.60;;;;;;5070768;28;20032;-44
2023/06/03 10:49:31;;;;;;;0.10;0.10;;;26.90;78.50;;;;;;5070411;28;20123;-39
2023/06/03 10:52:12;;;;;;;0.00;0.00;;;26.60;76.50;;;;;;5070205;28;20033;-51
2023/06/03 10:54:52;;;;;;;0.10;0.10;;;26.90;83.00;;;;;;5070583;28;20526;-41
2023/06/03 10:57:21;;;;;;;0.10;0.10;;;26.70;79.50;;;;;;5070087;28;20059;-42
2023/06/03 10:59:47;;;;;;;0.10;0.10;;;26.60;77.80;;;;;;5070229;28;20162;-40
2023/06/03 11:02:14;;;;;;;0.15;0.10;;;26.50;78.50;;;;;;5079295;28;20089;-45
2023/06/03 11:04:40;;;;;;;0.10;0.10;;;26.60;80.40;;;;;;5090537;28;20024;-47
2023/06/03 11:07:27;;;;;;;0.10;0.10;;;26.90;78.10;;;;;;5090695;28;20465;-44
2023/06/03 11:09:54;;;;;;;0.10;0.10;;;26.00;73.60;;;;;;5079541;28;20064;-47
2023/06/03 11:12:20;;;;;;;0.00;0.00;;;25.90;78.40;;;;;;5083176;28;20106;-47
2023/06/03 11:14:49;;;;;;;0.20;0.20;;;25.20;76.50;;;;;;5089638;28;20119;-52
2023/06/03 11:17:15;;;;;;;;;;;25.50;84.80;;;;;;5075286;28;20484;-49
2023/06/03 11:19:44;;;;;;;0.10;0.10;;;25.50;81.50;;;;;;5070174;28;19951;-41
2023/06/03 11:22:11;;;;;;;0.10;0.10;;;25.60;79.00;;;;;;5070328;28;20032;-52
2023/06/03 11:24:39;;;;;;;0.10;0.10;;;25.90;77.20;;;;;;5069910;28;20375;-53
2023/06/03 11:27:14;;;;;;;0.10;0.10;;;26.00;75.70;;;;;;5070016;28;20523;-42
2023/06/03 11:29:51;;;;;;;0.10;0.10;;;25.40;77.00;;;;;;5070029;28;20037;-42
2023/06/03 11:32:18;;;;;;;0.10;0.10;;;25.10;74.20;;;;;;5070074;28;20020;-50
2023/06/03 11:34:45;;;;;;;0.00;0.00;;;25.00;78.50;;;;;;5070095;28;20131;-50
2023/06/03 11:37:13;;;;;;;0.20;0.20;;;25.40;79.50;;;;;;5069860;28;20032;-42
2023/06/03 11:39:59;;;;;;;0.10;0.10;;;25.90;77.90;;;;;;5069622;28;20017;-50
2023/06/03 11:42:25;;;;;;;0.10;0.10;;;26.30;79.00;;;;;;5067423;28;20024;-48
2023/06/03 11:44:50;;;;;;;0.10;0.10;;;26.40;77.20;;;;;;5064111;28;20045;-52
2023/06/03 11:47:16;;;;;;;0.10;0.10;;;26.60;74.60;;;;;;5062818;28;20024;-45
2023/06/03 11:49:42;;;;;;;0.00;0.00;;;26.70;74.90;;;;;;5069789;28;20135;-50
2023/06/03 11:52:09;;;;;;;0.10;0.10;;;26.60;75.40;;;;;;5069678;28;20028;-45
2023/06/03 11:54:43;;;;;;;0.10;0.10;;;26.60;73.90;;;;;;5069958;28;20406;-46
2023/06/03 11:57:09;;;;;;;0.10;0.10;;;26.70;72.20;;;;;;5067763;28;20083;-48
2023/06/03 11:59:44;;;;;;;0.10;0.10;;;26.70;72.80;;;;;;5069843;28;20028;-46
2023/06/03 12:02:10;;;;;;;0.10;0.10;;;26.60;74.10;;;;;;5078299;28;20044;-41
2023/06/03 12:04:36;;;;;;;0.10;0.10;;;26.70;73.00;;;;;;5089738;28;20440;-46
2023/06/03 12:07:08;;;;;;;0.10;0.10;;;26.50;73.80;;;;;;5090135;28;20028;-42
2023/06/03 12:09:34;;;;;;;0.10;0.10;;;26.60;72.20;;;;;;5089866;28;20036;-42
2023/06/03 12:12:05;;;;;;;0.13;0.13;;;26.30;71.70;;;;;;5075510;28;20130;-45
2023/06/03 12:14:33;;;;;;;0.08;0.08;;;25.90;70.50;;;;;;5090074;28;20032;-54
2023/06/03 12:17:18;;;;;;;0.10;0.10;;;25.30;69.60;;;;;;5086242;28;20017;-42
2023/06/03 12:19:51;;;;;;;0.20;0.20;;;25.40;71.60;;;;;;5072987;28;20032;-49
2023/06/03 12:22:22;;;;;;;0.20;0.20;;;25.70;72.80;;;;;;5072706;28;20016;-46
2023/06/03 12:24:48;;;;;;;0.00;0.00;;;25.80;71.70;;;;;;5076134;28;20090;-50
2023/06/03 12:27:25;;;;;;;0.10;0.10;;;25.30;72.20;;;;;;5064796;28;20116;-51
2023/06/03 12:29:53;;;;;;;0.75;0.38;;;25.00;72.00;;;;;;5072695;28;20047;-46
2023/06/03 12:32:19;;;;;;;0.10;0.10;;;24.90;71.80;;;;;;5073030;28;20070;-48
2023/06/03 12:34:46;;;;;;;0.20;0.20;;;24.80;70.50;;;;;;5072707;28;20089;-43
2023/06/03 12:37:12;;;;;;;0.10;0.10;;;24.80;73.80;;;;;;5073071;28;20104;-40
2023/06/03 12:39:40;;;;;;;0.10;0.10;;;25.10;73.40;;;;;;5072685;28;20502;-44
2023/06/03 12:42:06;;;;;;;0.00;0.00;;;25.10;71.30;;;;;;5072257;28;20024;-53
2023/06/03 12:44:43;;;;;;;0.10;0.10;;;24.90;70.70;;;;;;5072543;28;20051;-40
2023/06/03 12:47:09;;;;;;;0.10;0.10;;;24.70;71.40;;;;;;5072785;28;20024;-48
2023/06/03 12:49:35;;;;;;;0.10;0.10;;;24.60;72.60;;;;;;5062425;28;20043;-45
2023/06/03 12:52:13;;;;;;;0.10;0.10;;;24.50;70.60;;;;;;5072221;28;20032;-49
2023/06/03 12:54:40;;;;;;;0.00;0.00;;;24.40;70.70;;;;;;5065981;28;20024;-39